S-y Atmosphere — ZCGY6 — position and weather

sailwx.info

Track history (hours):
 
Tides and Currents Weather Stations Pressure Air Temp Water Temp Dewpoint Dewpoint Depression Visibility Wind Speed Wind Dir Waves Ship Positions

S-y Atmosphere

Last reported at 2016-Aug-29 16:23 UTC. Time now 2016-Aug-31 00:31 UTC.
Position N 43°31' E 007°05'.

Length 53 m; draft 4 m.

Type: Sailing vessel. MMSI: 319726000.

Date/timePositionNaut miles runAvg speedWind from/ knotsBaromVisibWave heightAir tempDewpointWater temp
2016-Aug-29 16:23N 43°31' E 007°05'1 1.6
2016-Aug-29 15:33N 43°32' E 007°03'0 0.0
2016-Aug-29 14:33N 43°32' E 007°03'0 0.0
2016-Aug-29 13:34N 43°32' E 007°03'0 0.0
2016-Aug-29 12:34N 43°32' E 007°03'2 2.1
2016-Aug-29 11:34N 43°30' E 007°01'3 0.9
2016-Aug-29 08:34N 43°31' E 006°58'  
2016-Aug-24 20:10N 44°03' E 008°37'1911.3
2016-Aug-24 18:29N 44°12' E 009°00'1111.5
2016-Aug-24 17:34N 44°17' E 009°13'10 4.0
2016-Aug-24 15:05N 44°13' E 009°26'610.4
2016-Aug-24 14:34N 44°09' E 009°30'1 1.3
2016-Aug-24 13:34N 44°07' E 009°31'  
2016-Aug-21 17:21N 44°17' E 009°13'  
Track history (hours):
 
Tides and Currents Weather Stations Pressure Air Temp Water Temp Dewpoint Dewpoint Depression Visibility Wind Speed Wind Dir Waves Ship Positions

S-y Atmosphere

Last reported at 2016-Aug-29 16:23 UTC. Time now 2016-Aug-31 00:31 UTC.
Position N 43°31' E 007°05'.

Length 53 m; draft 4 m.

Type: Sailing vessel. MMSI: 319726000.

Date/timePositionNaut miles runAvg speedWind from/ knotsBaromVisibWave heightAir tempDewpointWater temp
2016-Aug-29 16:23N 43°31' E 007°05'1 1.6
2016-Aug-29 15:33N 43°32' E 007°03'0 0.0
2016-Aug-29 14:33N 43°32' E 007°03'0 0.0
2016-Aug-29 13:34N 43°32' E 007°03'0 0.0
2016-Aug-29 12:34N 43°32' E 007°03'2 2.1
2016-Aug-29 11:34N 43°30' E 007°01'3 0.9
2016-Aug-29 08:34N 43°31' E 006°58'  
2016-Aug-24 20:10N 44°03' E 008°37'1911.3
2016-Aug-24 18:29N 44°12' E 009°00'1111.5
2016-Aug-24 17:34N 44°17' E 009°13'10 4.0
2016-Aug-24 15:05N 44°13' E 009°26'610.4
2016-Aug-24 14:34N 44°09' E 009°30'1 1.3
2016-Aug-24 13:34N 44°07' E 009°31'  
2016-Aug-21 17:21N 44°17' E 009°13'  

Dump ship's entire track history